sensor_id;sensor_type;location;lat;lon;timestamp;P1;P2;P0
65360;PMS5003;51958;55.018;73.536;2023-05-14T00:02:40;6.00;6.00;3.33
65360;PMS5003;51958;55.018;73.536;2023-05-14T00:05:42;5.00;5.00;4.00
65360;PMS5003;51958;55.018;73.536;2023-05-14T00:08:43;6.67;6.00;3.00
65360;PMS5003;51958;55.018;73.536;2023-05-14T00:11:44;7.33;6.67;4.00
65360;PMS5003;51958;55.018;73.536;2023-05-14T00:14:45;9.00;6.33;3.00
65360;PMS5003;51958;55.018;73.536;2023-05-14T00:17:46;8.00;7.67;4.00
65360;PMS5003;51958;55.018;73.536;2023-05-14T00:20:47;7.00;6.33;3.00
65360;PMS5003;51958;55.018;73.536;2023-05-14T00:23:51;7.00;6.33;3.67
65360;PMS5003;51958;55.018;73.536;2023-05-14T00:26:52;6.00;6.00;3.00
65360;PMS5003;51958;55.018;73.536;2023-05-14T00:29:53;6.00;6.00;4.00
65360;PMS5003;51958;55.018;73.536;2023-05-14T00:32:54;6.00;6.00;3.00
65360;PMS5003;51958;55.018;73.536;2023-05-14T00:35:56;4.67;4.67;2.00
65360;PMS5003;51958;55.018;73.536;2023-05-14T00:38:57;4.00;4.00;3.00
65360;PMS5003;51958;55.018;73.536;2023-05-14T00:41:58;4.00;4.00;2.00
65360;PMS5003;51958;55.018;73.536;2023-05-14T00:45:00;5.33;5.00;2.00
65360;PMS5003;51958;55.018;73.536;2023-05-14T00:48:01;4.00;4.00;1.00
65360;PMS5003;51958;55.018;73.536;2023-05-14T00:51:02;6.00;4.00;2.00
65360;PMS5003;51958;55.018;73.536;2023-05-14T00:54:03;4.67;4.00;2.00
65360;PMS5003;51958;55.018;73.536;2023-05-14T00:57:05;4.00;4.00;1.00
65360;PMS5003;51958;55.018;73.536;2023-05-14T01:00:06;6.00;5.00;1.00
65360;PMS5003;51958;55.018;73.536;2023-05-14T01:03:08;6.67;5.00;1.00
65360;PMS5003;51958;55.018;73.536;2023-05-14T01:15:38;8.00;5.00;4.00
65360;PMS5003;51958;55.018;73.536;2023-05-14T01:18:41;7.33;7.33;3.67
65360;PMS5003;51958;55.018;73.536;2023-05-14T01:21:43;10.00;8.33;4.00
65360;PMS5003;51958;55.018;73.536;2023-05-14T01:24:44;10.00;9.00;5.00
65360;PMS5003;51958;55.018;73.536;2023-05-14T01:27:51;8.00;8.00;4.00
65360;PMS5003;51958;55.018;73.536;2023-05-14T01:33:56;7.33;6.00;4.00
65360;PMS5003;51958;55.018;73.536;2023-05-14T01:36:59;9.33;7.67;4.00
65360;PMS5003;51958;55.018;73.536;2023-05-14T01:40:00;12.33;10.33;4.67
65360;PMS5003;51958;55.018;73.536;2023-05-14T01:43:03;15.33;12.00;5.00
65360;PMS5003;51958;55.018;73.536;2023-05-14T01:46:04;13.00;9.00;4.00
65360;PMS5003;51958;55.018;73.536;2023-05-14T01:49:05;9.00;8.00;4.00
65360;PMS5003;51958;55.018;73.536;2023-05-14T01:52:06;12.00;9.67;4.00
65360;PMS5003;51958;55.018;73.536;2023-05-14T01:55:08;11.00;10.00;4.67
65360;PMS5003;51958;55.018;73.536;2023-05-14T01:58:09;9.33;8.00;4.00
65360;PMS5003;51958;55.018;73.536;2023-05-14T02:01:11;10.00;8.00;4.00
65360;PMS5003;51958;55.018;73.536;2023-05-14T02:04:12;10.33;8.67;5.00
65360;PMS5003;51958;55.018;73.536;2023-05-14T02:07:15;12.00;9.33;5.00
65360;PMS5003;51958;55.018;73.536;2023-05-14T02:10:16;12.00;10.67;4.00
65360;PMS5003;51958;55.018;73.536;2023-05-14T02:13:24;14.00;9.00;5.00
65360;PMS5003;51958;55.018;73.536;2023-05-14T02:16:26;13.00;8.00;5.00
65360;PMS5003;51958;55.018;73.536;2023-05-14T02:19:28;12.00;11.00;5.00
65360;PMS5003;51958;55.018;73.536;2023-05-14T02:22:29;11.00;9.00;4.00
65360;PMS5003;51958;55.018;73.536;2023-05-14T02:25:30;10.00;9.67;5.00
65360;PMS5003;51958;55.018;73.536;2023-05-14T02:28:33;8.00;8.00;4.00
65360;PMS5003;51958;55.018;73.536;2023-05-14T02:31:34;7.00;6.33;4.00
65360;PMS5003;51958;55.018;73.536;2023-05-14T02:34:35;10.67;9.00;5.00
65360;PMS5003;51958;55.018;73.536;2023-05-14T02:37:36;12.33;10.67;5.33
65360;PMS5003;51958;55.018;73.536;2023-05-14T02:40:37;13.00;11.33;5.00
65360;PMS5003;51958;55.018;73.536;2023-05-14T02:43:38;14.00;11.67;5.00
65360;PMS5003;51958;55.018;73.536;2023-05-14T02:46:41;14.67;12.33;6.00
65360;PMS5003;51958;55.018;73.536;2023-05-14T02:49:43;15.67;12.00;6.00
65360;PMS5003;51958;55.018;73.536;2023-05-14T02:52:44;13.00;11.00;5.00
65360;PMS5003;51958;55.018;73.536;2023-05-14T02:55:45;15.00;8.33;5.00
65360;PMS5003;51958;55.018;73.536;2023-05-14T02:58:46;14.00;12.00;6.00
65360;PMS5003;51958;55.018;73.536;2023-05-14T03:01:49;13.00;12.00;4.33
65360;PMS5003;51958;55.018;73.536;2023-05-14T03:04:50;13.67;13.00;7.00
65360;PMS5003;51958;55.018;73.536;2023-05-14T03:07:52;16.00;14.00;6.33
65360;PMS5003;51958;55.018;73.536;2023-05-14T03:10:53;15.00;13.00;6.33
65360;PMS5003;51958;55.018;73.536;2023-05-14T03:13:55;15.00;13.33;7.00
65360;PMS5003;51958;55.018;73.536;2023-05-14T03:16:56;14.00;13.33;6.00
65360;PMS5003;51958;55.018;73.536;2023-05-14T03:19:57;15.33;13.33;7.00
65360;PMS5003;51958;55.018;73.536;2023-05-14T03:22:59;15.00;13.00;8.00
65360;PMS5003;51958;55.018;73.536;2023-05-14T03:26:00;14.00;13.00;6.00
65360;PMS5003;51958;55.018;73.536;2023-05-14T03:29:02;15.00;14.33;8.00
65360;PMS5003;51958;55.018;73.536;2023-05-14T03:32:03;17.00;15.00;8.00
65360;PMS5003;51958;55.018;73.536;2023-05-14T03:35:05;14.67;12.33;7.00
65360;PMS5003;51958;55.018;73.536;2023-05-14T03:38:07;15.67;14.00;7.00
65360;PMS5003;51958;55.018;73.536;2023-05-14T03:41:08;15.00;15.00;7.00
65360;PMS5003;51958;55.018;73.536;2023-05-14T03:44:10;14.00;12.00;6.00
65360;PMS5003;51958;55.018;73.536;2023-05-14T03:47:11;15.00;13.00;5.67
65360;PMS5003;51958;55.018;73.536;2023-05-14T03:50:12;16.00;15.00;7.00
65360;PMS5003;51958;55.018;73.536;2023-05-14T03:53:14;16.00;15.00;7.00
65360;PMS5003;51958;55.018;73.536;2023-05-14T03:56:16;15.33;15.00;7.00
65360;PMS5003;51958;55.018;73.536;2023-05-14T03:59:17;15.33;13.00;5.00
65360;PMS5003;51958;55.018;73.536;2023-05-14T04:02:18;15.00;12.00;5.00
65360;PMS5003;51958;55.018;73.536;2023-05-14T04:05:21;15.00;12.00;5.00
65360;PMS5003;51958;55.018;73.536;2023-05-14T04:08:22;15.00;13.33;6.00
65360;PMS5003;51958;55.018;73.536;2023-05-14T04:11:23;17.33;14.00;7.00
65360;PMS5003;51958;55.018;73.536;2023-05-14T04:14:25;18.00;14.33;5.33
65360;PMS5003;51958;55.018;73.536;2023-05-14T04:17:26;17.00;15.00;6.00
65360;PMS5003;51958;55.018;73.536;2023-05-14T04:20:28;15.67;13.00;5.00
65360;PMS5003;51958;55.018;73.536;2023-05-14T04:23:30;12.00;10.67;4.00
65360;PMS5003;51958;55.018;73.536;2023-05-14T04:26:31;13.00;12.00;6.00
65360;PMS5003;51958;55.018;73.536;2023-05-14T04:29:32;14.33;13.33;6.00
65360;PMS5003;51958;55.018;73.536;2023-05-14T04:32:35;14.00;13.00;6.00
65360;PMS5003;51958;55.018;73.536;2023-05-14T04:35:36;13.00;12.67;6.00
65360;PMS5003;51958;55.018;73.536;2023-05-14T04:38:37;13.33;11.00;5.00
65360;PMS5003;51958;55.018;73.536;2023-05-14T04:41:38;11.00;8.33;3.67
65360;PMS5003;51958;55.018;73.536;2023-05-14T04:44:40;9.00;8.33;4.00
65360;PMS5003;51958;55.018;73.536;2023-05-14T04:47:41;7.00;7.00;4.00
65360;PMS5003;51958;55.018;73.536;2023-05-14T04:50:42;7.67;7.67;5.00
65360;PMS5003;51958;55.018;73.536;2023-05-14T04:53:43;7.00;7.00;3.67
65360;PMS5003;51958;55.018;73.536;2023-05-14T04:56:44;10.00;10.00;5.00
65360;PMS5003;51958;55.018;73.536;2023-05-14T04:59:47;12.67;11.00;4.00
65360;PMS5003;51958;55.018;73.536;2023-05-14T05:02:48;12.67;10.67;4.00
65360;PMS5003;51958;55.018;73.536;2023-05-14T05:05:49;9.00;8.00;5.00
65360;PMS5003;51958;55.018;73.536;2023-05-14T05:08:51;8.67;8.67;5.00
65360;PMS5003;51958;55.018;73.536;2023-05-14T05:11:52;13.33;12.00;7.00
65360;PMS5003;51958;55.018;73.536;2023-05-14T05:14:53;10.00;7.33;2.67
65360;PMS5003;51958;55.018;73.536;2023-05-14T05:17:54;7.33;7.00;3.67
65360;PMS5003;51958;55.018;73.536;2023-05-14T05:20:55;8.67;7.33;3.00
65360;PMS5003;51958;55.018;73.536;2023-05-14T05:23:57;10.33;7.00;4.67
65360;PMS5003;51958;55.018;73.536;2023-05-14T05:26:58;9.00;8.00;6.00
65360;PMS5003;51958;55.018;73.536;2023-05-14T05:30:02;7.00;7.00;4.33
65360;PMS5003;51958;55.018;73.536;2023-05-14T05:33:06;10.00;10.00;6.00
65360;PMS5003;51958;55.018;73.536;2023-05-14T05:36:08;12.00;9.00;4.00
65360;PMS5003;51958;55.018;73.536;2023-05-14T05:39:09;9.00;7.00;4.00
65360;PMS5003;51958;55.018;73.536;2023-05-14T05:42:11;8.67;7.67;3.33
65360;PMS5003;51958;55.018;73.536;2023-05-14T05:45:12;10.00;7.33;4.00
65360;PMS5003;51958;55.018;73.536;2023-05-14T05:48:13;12.00;7.00;4.00
65360;PMS5003;51958;55.018;73.536;2023-05-14T05:51:29;10.00;8.00;5.00
65360;PMS5003;51958;55.018;73.536;2023-05-14T05:54:30;12.33;11.00;5.00
65360;PMS5003;51958;55.018;73.536;2023-05-14T05:57:34;13.00;8.00;6.00
65360;PMS5003;51958;55.018;73.536;2023-05-14T06:00:35;13.33;8.33;5.67
65360;PMS5003;51958;55.018;73.536;2023-05-14T06:03:46;10.67;8.67;6.00
65360;PMS5003;51958;55.018;73.536;2023-05-14T06:06:47;8.33;8.33;5.00
65360;PMS5003;51958;55.018;73.536;2023-05-14T06:09:48;6.33;6.33;3.00
65360;PMS5003;51958;55.018;73.536;2023-05-14T06:12:49;8.00;6.33;4.00
65360;PMS5003;51958;55.018;73.536;2023-05-14T06:15:54;8.67;7.00;4.00
65360;PMS5003;51958;55.018;73.536;2023-05-14T06:18:55;8.00;7.00;4.00
65360;PMS5003;51958;55.018;73.536;2023-05-14T06:21:56;7.67;6.33;4.00
65360;PMS5003;51958;55.018;73.536;2023-05-14T06:24:57;7.67;7.67;5.00
65360;PMS5003;51958;55.018;73.536;2023-05-14T06:27:58;7.00;7.00;4.00
65360;PMS5003;51958;55.018;73.536;2023-05-14T06:30:59;10.00;9.00;5.00
65360;PMS5003;51958;55.018;73.536;2023-05-14T06:34:01;11.00;8.00;5.00
65360;PMS5003;51958;55.018;73.536;2023-05-14T06:37:02;10.33;8.00;4.00
65360;PMS5003;51958;55.018;73.536;2023-05-14T06:40:04;9.67;7.00;4.00
65360;PMS5003;51958;55.018;73.536;2023-05-14T06:43:07;8.00;8.00;3.00
65360;PMS5003;51958;55.018;73.536;2023-05-14T06:46:10;7.00;7.00;4.00
65360;PMS5003;51958;55.018;73.536;2023-05-14T06:49:11;7.00;7.00;4.33
65360;PMS5003;51958;55.018;73.536;2023-05-14T06:52:12;8.00;7.00;5.00
65360;PMS5003;51958;55.018;73.536;2023-05-14T06:55:13;8.00;7.00;5.00
65360;PMS5003;51958;55.018;73.536;2023-05-14T06:58:14;9.00;8.00;4.00
65360;PMS5003;51958;55.018;73.536;2023-05-14T07:01:19;9.00;9.00;5.00
65360;PMS5003;51958;55.018;73.536;2023-05-14T07:04:20;9.00;7.67;4.00
65360;PMS5003;51958;55.018;73.536;2023-05-14T07:07:21;6.00;5.00;3.00
65360;PMS5003;51958;55.018;73.536;2023-05-14T07:10:22;6.00;6.00;3.00
65360;PMS5003;51958;55.018;73.536;2023-05-14T07:13:24;9.00;9.00;5.00
65360;PMS5003;51958;55.018;73.536;2023-05-14T07:16:26;8.00;8.00;5.00
65360;PMS5003;51958;55.018;73.536;2023-05-14T07:19:28;12.00;11.00;7.00
65360;PMS5003;51958;55.018;73.536;2023-05-14T07:22:29;13.00;9.33;6.00
65360;PMS5003;51958;55.018;73.536;2023-05-14T07:25:30;13.00;10.00;5.00
65360;PMS5003;51958;55.018;73.536;2023-05-14T07:28:33;12.33;10.33;5.00
65360;PMS5003;51958;55.018;73.536;2023-05-14T07:31:35;15.00;14.00;7.00
65360;PMS5003;51958;55.018;73.536;2023-05-14T07:34:36;16.00;14.00;7.00
65360;PMS5003;51958;55.018;73.536;2023-05-14T07:37:37;16.00;15.00;7.00
65360;PMS5003;51958;55.018;73.536;2023-05-14T07:40:38;16.00;14.00;7.00
65360;PMS5003;51958;55.018;73.536;2023-05-14T07:43:40;18.75;14.50;6.00
65360;PMS5003;51958;55.018;73.536;2023-05-14T07:46:42;17.00;14.00;7.00
65360;PMS5003;51958;55.018;73.536;2023-05-14T07:49:43;17.00;16.00;7.75
65360;PMS5003;51958;55.018;73.536;2023-05-14T07:52:44;19.00;16.50;7.00
65360;PMS5003;51958;55.018;73.536;2023-05-14T07:55:45;19.00;16.25;9.25
65360;PMS5003;51958;55.018;73.536;2023-05-14T07:58:48;17.00;16.00;7.33
65360;PMS5003;51958;55.018;73.536;2023-05-14T08:01:49;19.00;19.00;10.00
65360;PMS5003;51958;55.018;73.536;2023-05-14T08:04:51;18.00;17.00;8.00
65360;PMS5003;51958;55.018;73.536;2023-05-14T08:07:52;16.00;16.00;7.33
65360;PMS5003;51958;55.018;73.536;2023-05-14T08:10:53;12.50;11.75;4.00
65360;PMS5003;51958;55.018;73.536;2023-05-14T08:13:55;11.00;11.00;5.00
65360;PMS5003;51958;55.018;73.536;2023-05-14T08:17:01;13.60;13.60;8.00
65360;PMS5003;51958;55.018;73.536;2023-05-14T08:20:03;18.25;18.25;10.25
65360;PMS5003;51958;55.018;73.536;2023-05-14T08:23:07;20.25;19.00;12.00
65360;PMS5003;51958;55.018;73.536;2023-05-14T08:26:09;18.75;17.00;8.25
65360;PMS5003;51958;55.018;73.536;2023-05-14T08:29:10;18.67;16.00;8.00
65360;PMS5003;51958;55.018;73.536;2023-05-14T08:32:11;21.00;16.00;9.67
65360;PMS5003;51958;55.018;73.536;2023-05-14T08:35:12;19.00;16.00;9.00
65360;PMS5003;51958;55.018;73.536;2023-05-14T08:38:13;18.00;16.00;8.00
65360;PMS5003;51958;55.018;73.536;2023-05-14T08:41:14;15.75;15.00;7.00
65360;PMS5003;51958;55.018;73.536;2023-05-14T08:44:19;16.00;15.00;7.00
65360;PMS5003;51958;55.018;73.536;2023-05-14T08:47:26;17.00;15.00;8.00
65360;PMS5003;51958;55.018;73.536;2023-05-14T08:50:28;18.00;16.50;9.50
65360;PMS5003;51958;55.018;73.536;2023-05-14T08:53:29;17.25;16.50;8.00
65360;PMS5003;51958;55.018;73.536;2023-05-14T08:56:31;15.00;15.00;6.75
65360;PMS5003;51958;55.018;73.536;2023-05-14T08:59:32;14.33;14.33;6.00
65360;PMS5003;51958;55.018;73.536;2023-05-14T09:02:34;13.50;12.00;6.00
65360;PMS5003;51958;55.018;73.536;2023-05-14T09:05:35;14.00;12.00;6.00
65360;PMS5003;51958;55.018;73.536;2023-05-14T09:08:36;13.00;10.00;5.00
65360;PMS5003;51958;55.018;73.536;2023-05-14T09:11:44;10.25;8.00;4.25
65360;PMS5003;51958;55.018;73.536;2023-05-14T09:14:52;10.00;10.00;5.75
65360;PMS5003;51958;55.018;73.536;2023-05-14T09:17:53;8.00;8.00;4.00
65360;PMS5003;51958;55.018;73.536;2023-05-14T09:20:54;11.75;11.75;8.00
65360;PMS5003;51958;55.018;73.536;2023-05-14T09:23:56;13.50;11.00;6.00
65360;PMS5003;51958;55.018;73.536;2023-05-14T09:26:57;17.00;15.25;8.75
65360;PMS5003;51958;55.018;73.536;2023-05-14T09:30:08;16.33;15.33;6.00
65360;PMS5003;51958;55.018;73.536;2023-05-14T09:33:10;14.00;13.00;4.00
65360;PMS5003;51958;55.018;73.536;2023-05-14T09:36:11;15.00;13.00;5.00
65360;PMS5003;51958;55.018;73.536;2023-05-14T09:39:16;19.25;17.00;8.00
65360;PMS5003;51958;55.018;73.536;2023-05-14T09:42:17;19.25;18.00;7.00
65360;PMS5003;51958;55.018;73.536;2023-05-14T09:45:19;16.00;16.00;6.00
65360;PMS5003;51958;55.018;73.536;2023-05-14T09:48:20;18.00;15.33;7.00
65360;PMS5003;51958;55.018;73.536;2023-05-14T09:51:22;17.25;15.50;7.00
65360;PMS5003;51958;55.018;73.536;2023-05-14T09:54:24;18.00;16.00;7.00
65360;PMS5003;51958;55.018;73.536;2023-05-14T09:57:26;15.00;14.00;6.00
65360;PMS5003;51958;55.018;73.536;2023-05-14T10:00:30;10.00;9.00;5.00
65360;PMS5003;51958;55.018;73.536;2023-05-14T10:03:31;10.25;9.50;5.75
65360;PMS5003;51958;55.018;73.536;2023-05-14T10:06:34;10.00;9.50;6.00
65360;PMS5003;51958;55.018;73.536;2023-05-14T10:09:36;12.00;12.00;6.00
65360;PMS5003;51958;55.018;73.536;2023-05-14T10:12:39;10.75;9.00;4.00
65360;PMS5003;51958;55.018;73.536;2023-05-14T10:15:48;7.00;7.00;3.00
65360;PMS5003;51958;55.018;73.536;2023-05-14T10:18:53;4.00;4.00;2.00
65360;PMS5003;51958;55.018;73.536;2023-05-14T10:21:58;5.75;5.75;2.00
65360;PMS5003;51958;55.018;73.536;2023-05-14T10:25:02;4.00;3.00;2.00
65360;PMS5003;51958;55.018;73.536;2023-05-14T10:28:04;4.00;4.00;3.00
65360;PMS5003;51958;55.018;73.536;2023-05-14T10:31:08;9.00;8.00;3.33
65360;PMS5003;51958;55.018;73.536;2023-05-14T10:34:29;4.50;4.50;2.00
65360;PMS5003;51958;55.018;73.536;2023-05-14T10:37:30;6.50;6.00;2.00
65360;PMS5003;51958;55.018;73.536;2023-05-14T10:40:32;4.00;3.00;1.00
65360;PMS5003;51958;55.018;73.536;2023-05-14T10:43:38;2.25;2.00;0.00
65360;PMS5003;51958;55.018;73.536;2023-05-14T10:46:39;4.75;3.25;0.00
65360;PMS5003;51958;55.018;73.536;2023-05-14T10:49:40;3.33;3.33;0.00
65360;PMS5003;51958;55.018;73.536;2023-05-14T10:52:43;6.00;5.50;1.00
65360;PMS5003;51958;55.018;73.536;2023-05-14T10:55:44;7.00;5.00;3.00
65360;PMS5003;51958;55.018;73.536;2023-05-14T10:58:46;6.00;6.00;3.00
65360;PMS5003;51958;55.018;73.536;2023-05-14T11:01:49;4.00;3.75;2.00
65360;PMS5003;51958;55.018;73.536;2023-05-14T11:04:54;4.75;4.00;2.00
65360;PMS5003;51958;55.018;73.536;2023-05-14T11:07:57;3.50;3.50;3.00
65360;PMS5003;51958;55.018;73.536;2023-05-14T11:10:58;6.00;6.00;3.00
65360;PMS5003;51958;55.018;73.536;2023-05-14T11:13:59;5.00;4.00;3.00
65360;PMS5003;51958;55.018;73.536;2023-05-14T11:17:01;6.75;6.00;3.00
65360;PMS5003;51958;55.018;73.536;2023-05-14T11:20:02;4.25;4.00;2.00
65360;PMS5003;51958;55.018;73.536;2023-05-14T11:23:06;5.75;5.75;2.00
65360;PMS5003;51958;55.018;73.536;2023-05-14T11:26:07;5.00;4.50;2.50
65360;PMS5003;51958;55.018;73.536;2023-05-14T11:29:09;4.00;4.00;1.00
65360;PMS5003;51958;55.018;73.536;2023-05-14T11:32:10;4.00;4.00;1.00
65360;PMS5003;51958;55.018;73.536;2023-05-14T11:35:12;3.75;3.75;1.00
65360;PMS5003;51958;55.018;73.536;2023-05-14T11:38:16;2.75;2.75;1.00
65360;PMS5003;51958;55.018;73.536;2023-05-14T11:41:18;3.00;2.00;0.00
65360;PMS5003;51958;55.018;73.536;2023-05-14T11:44:21;3.00;3.00;0.00
65360;PMS5003;51958;55.018;73.536;2023-05-14T11:47:22;1.00;1.00;0.00
65360;PMS5003;51958;55.018;73.536;2023-05-14T11:50:23;1.75;1.75;0.00
65360;PMS5003;51958;55.018;73.536;2023-05-14T11:53:28;0.00;0.00;0.00
65360;PMS5003;51958;55.018;73.536;2023-05-14T11:56:29;0.00;0.00;0.00
65360;PMS5003;51958;55.018;73.536;2023-05-14T11:59:33;0.00;0.00;0.00
65360;PMS5003;51958;55.018;73.536;2023-05-14T12:02:34;0.00;0.00;0.00
65360;PMS5003;51958;55.018;73.536;2023-05-14T12:05:38;1.00;0.00;0.00
65360;PMS5003;51958;55.018;73.536;2023-05-14T12:08:39;1.00;0.00;0.00
65360;PMS5003;51958;55.018;73.536;2023-05-14T12:11:50;4.00;2.00;0.00
65360;PMS5003;51958;55.018;73.536;2023-05-14T12:14:52;3.00;3.00;0.00
65360;PMS5003;51958;55.018;73.536;2023-05-14T12:17:53;5.00;4.00;0.00
65360;PMS5003;51958;55.018;73.536;2023-05-14T12:20:54;5.00;5.00;0.75
65360;PMS5003;51958;55.018;73.536;2023-05-14T12:23:56;5.00;5.00;1.00
65360;PMS5003;51958;55.018;73.536;2023-05-14T12:26:59;5.00;5.00;0.75
65360;PMS5003;51958;55.018;73.536;2023-05-14T12:30:01;4.00;4.00;1.00
65360;PMS5003;51958;55.018;73.536;2023-05-14T12:33:08;9.75;8.00;3.75
65360;PMS5003;51958;55.018;73.536;2023-05-14T12:36:12;9.00;7.00;3.00
65360;PMS5003;51958;55.018;73.536;2023-05-14T12:39:14;7.00;7.00;3.00
65360;PMS5003;51958;55.018;73.536;2023-05-14T12:42:15;8.00;6.00;3.00
65360;PMS5003;51958;55.018;73.536;2023-05-14T12:45:16;9.00;9.00;4.50
65360;PMS5003;51958;55.018;73.536;2023-05-14T12:48:18;11.75;11.75;5.00
65360;PMS5003;51958;55.018;73.536;2023-05-14T12:51:19;14.00;11.33;6.00
65360;PMS5003;51958;55.018;73.536;2023-05-14T12:54:20;14.00;13.00;6.00
65360;PMS5003;51958;55.018;73.536;2023-05-14T12:57:22;12.50;10.50;5.00
65360;PMS5003;51958;55.018;73.536;2023-05-14T13:00:23;13.75;11.00;5.25
65360;PMS5003;51958;55.018;73.536;2023-05-14T13:03:24;14.25;11.50;6.50
65360;PMS5003;51958;55.018;73.536;2023-05-14T13:06:27;15.00;13.75;5.00
65360;PMS5003;51958;55.018;73.536;2023-05-14T13:09:29;16.75;13.00;5.00
65360;PMS5003;51958;55.018;73.536;2023-05-14T13:12:30;17.00;11.75;5.00
65360;PMS5003;51958;55.018;73.536;2023-05-14T13:15:32;17.00;12.00;6.00
65360;PMS5003;51958;55.018;73.536;2023-05-14T13:18:34;17.00;14.25;6.50
65360;PMS5003;51958;55.018;73.536;2023-05-14T13:21:35;18.00;15.00;8.00
65360;PMS5003;51958;55.018;73.536;2023-05-14T13:24:37;16.00;13.00;5.00
65360;PMS5003;51958;55.018;73.536;2023-05-14T13:27:38;19.00;16.25;8.50
65360;PMS5003;51958;55.018;73.536;2023-05-14T13:30:39;21.00;18.50;9.00
65360;PMS5003;51958;55.018;73.536;2023-05-14T13:33:40;20.00;20.00;9.00
65360;PMS5003;51958;55.018;73.536;2023-05-14T13:36:42;17.00;17.00;7.00
65360;PMS5003;51958;55.018;73.536;2023-05-14T13:39:43;17.00;16.00;7.00
65360;PMS5003;51958;55.018;73.536;2023-05-14T13:42:44;16.00;15.00;7.00
65360;PMS5003;51958;55.018;73.536;2023-05-14T13:45:45;12.00;9.00;4.00
65360;PMS5003;51958;55.018;73.536;2023-05-14T13:48:47;6.25;6.00;3.00
65360;PMS5003;51958;55.018;73.536;2023-05-14T13:51:48;4.00;3.67;2.00
65360;PMS5003;51958;55.018;73.536;2023-05-14T13:54:49;1.50;1.50;0.00
65360;PMS5003;51958;55.018;73.536;2023-05-14T13:57:51;1.00;1.00;0.00
65360;PMS5003;51958;55.018;73.536;2023-05-14T14:00:52;0.00;0.00;0.00
65360;PMS5003;51958;55.018;73.536;2023-05-14T14:03:53;0.00;0.00;0.00
65360;PMS5003;51958;55.018;73.536;2023-05-14T14:06:54;1.50;0.00;0.00
65360;PMS5003;51958;55.018;73.536;2023-05-14T14:09:56;2.00;2.00;0.00
65360;PMS5003;51958;55.018;73.536;2023-05-14T14:12:57;0.00;0.00;0.00
65360;PMS5003;51958;55.018;73.536;2023-05-14T14:15:58;0.00;0.00;0.00
65360;PMS5003;51958;55.018;73.536;2023-05-14T14:18:59;1.00;1.00;0.00
65360;PMS5003;51958;55.018;73.536;2023-05-14T14:22:00;1.67;0.00;0.00
65360;PMS5003;51958;55.018;73.536;2023-05-14T14:25:02;2.75;1.00;0.00
65360;PMS5003;51958;55.018;73.536;2023-05-14T14:28:04;6.00;5.00;0.00
65360;PMS5003;51958;55.018;73.536;2023-05-14T14:31:06;11.33;11.00;5.00
65360;PMS5003;51958;55.018;73.536;2023-05-14T14:34:07;18.00;16.50;9.00
65360;PMS5003;51958;55.018;73.536;2023-05-14T14:37:08;23.00;21.67;11.67
65360;PMS5003;51958;55.018;73.536;2023-05-14T14:40:10;24.33;22.67;14.00
65360;PMS5003;51958;55.018;73.536;2023-05-14T14:43:12;29.33;25.00;15.00
65360;PMS5003;51958;55.018;73.536;2023-05-14T14:46:13;26.00;22.67;15.00
65360;PMS5003;51958;55.018;73.536;2023-05-14T14:49:14;52.00;41.67;28.33
65360;PMS5003;51958;55.018;73.536;2023-05-14T14:52:16;56.00;43.33;30.00
65360;PMS5003;51958;55.018;73.536;2023-05-14T14:55:17;45.00;36.33;23.67
65360;PMS5003;51958;55.018;73.536;2023-05-14T14:58:19;29.00;27.33;18.00
65360;PMS5003;51958;55.018;73.536;2023-05-14T15:01:23;33.25;28.00;18.00
65360;PMS5003;51958;55.018;73.536;2023-05-14T15:04:24;43.00;34.00;20.67
65360;PMS5003;51958;55.018;73.536;2023-05-14T15:07:26;50.33;39.00;24.00
65360;PMS5003;51958;55.018;73.536;2023-05-14T15:10:27;41.67;33.33;20.33
65360;PMS5003;51958;55.018;73.536;2023-05-14T15:13:29;29.00;26.00;17.00
65360;PMS5003;51958;55.018;73.536;2023-05-14T15:16:31;36.00;28.00;19.00
65360;PMS5003;51958;55.018;73.536;2023-05-14T15:19:32;50.00;39.33;24.00
65360;PMS5003;51958;55.018;73.536;2023-05-14T15:22:33;53.33;42.00;26.00
65360;PMS5003;51958;55.018;73.536;2023-05-14T15:25:34;52.67;39.67;25.00
65360;PMS5003;51958;55.018;73.536;2023-05-14T15:28:35;58.00;44.00;28.33
65360;PMS5003;51958;55.018;73.536;2023-05-14T15:31:37;60.00;47.67;29.00
65360;PMS5003;51958;55.018;73.536;2023-05-14T15:34:38;58.00;46.00;28.33
65360;PMS5003;51958;55.018;73.536;2023-05-14T15:37:39;62.00;48.33;29.00
65360;PMS5003;51958;55.018;73.536;2023-05-14T15:40:41;61.33;46.33;29.00
65360;PMS5003;51958;55.018;73.536;2023-05-14T15:43:45;65.33;52.33;33.00
65360;PMS5003;51958;55.018;73.536;2023-05-14T15:46:46;68.00;57.00;34.33
65360;PMS5003;51958;55.018;73.536;2023-05-14T15:49:47;76.00;63.33;40.00
65360;PMS5003;51958;55.018;73.536;2023-05-14T15:52:48;69.00;61.67;38.67
65360;PMS5003;51958;55.018;73.536;2023-05-14T15:55:49;64.00;55.00;34.00
65360;PMS5003;51958;55.018;73.536;2023-05-14T15:58:50;60.00;48.67;31.00
65360;PMS5003;51958;55.018;73.536;2023-05-14T16:01:51;59.33;47.00;29.33
65360;PMS5003;51958;55.018;73.536;2023-05-14T16:04:53;58.00;45.00;29.00
65360;PMS5003;51958;55.018;73.536;2023-05-14T16:07:54;58.00;44.00;29.00
65360;PMS5003;51958;55.018;73.536;2023-05-14T16:10:56;59.00;47.00;29.33
65360;PMS5003;51958;55.018;73.536;2023-05-14T16:13:57;63.67;54.00;32.67
65360;PMS5003;51958;55.018;73.536;2023-05-14T16:16:58;67.67;60.00;37.00
65360;PMS5003;51958;55.018;73.536;2023-05-14T16:20:01;72.00;62.67;39.00
65360;PMS5003;51958;55.018;73.536;2023-05-14T16:23:04;73.00;65.00;39.33
65360;PMS5003;51958;55.018;73.536;2023-05-14T16:26:05;71.00;63.33;39.67
65360;PMS5003;51958;55.018;73.536;2023-05-14T16:29:07;72.33;62.00;38.33
65360;PMS5003;51958;55.018;73.536;2023-05-14T16:32:08;65.00;56.00;34.00
65360;PMS5003;51958;55.018;73.536;2023-05-14T16:35:09;60.33;46.00;29.33
65360;PMS5003;51958;55.018;73.536;2023-05-14T16:38:11;53.00;40.33;27.00
65360;PMS5003;51958;55.018;73.536;2023-05-14T16:41:12;48.00;38.00;24.00
65360;PMS5003;51958;55.018;73.536;2023-05-14T16:44:15;50.00;38.00;25.00
65360;PMS5003;51958;55.018;73.536;2023-05-14T16:47:16;52.00;40.00;26.00
65360;PMS5003;51958;55.018;73.536;2023-05-14T16:50:17;50.67;39.00;25.00
65360;PMS5003;51958;55.018;73.536;2023-05-14T16:53:19;51.00;40.25;26.00
65360;PMS5003;51958;55.018;73.536;2023-05-14T16:56:20;53.33;41.33;26.00
65360;PMS5003;51958;55.018;73.536;2023-05-14T16:59:21;51.33;41.00;26.00
65360;PMS5003;51958;55.018;73.536;2023-05-14T17:02:22;51.00;39.00;26.00
65360;PMS5003;51958;55.018;73.536;2023-05-14T17:05:35;50.00;38.00;25.33
65360;PMS5003;51958;55.018;73.536;2023-05-14T17:08:37;49.00;38.00;25.00
65360;PMS5003;51958;55.018;73.536;2023-05-14T17:11:39;48.00;38.00;24.00
65360;PMS5003;51958;55.018;73.536;2023-05-14T17:14:40;50.00;38.00;25.00
65360;PMS5003;51958;55.018;73.536;2023-05-14T17:17:42;49.00;39.00;25.00
65360;PMS5003;51958;55.018;73.536;2023-05-14T17:20:44;48.00;38.00;25.33
65360;PMS5003;51958;55.018;73.536;2023-05-14T17:23:46;46.33;37.00;24.33